Time;durP1;ratioP1;P1;durP2;ratioP2;P2;SDS_P1;SDS_P2;PMS_P1;PMS_P2;Temp;Humidity;BMP_temperature;BMP_pressure;BME280_temperature;BME280_humidity;BME280_pressure;Samples;Min_cycle;Max_cycle;Signal;HPM_P1;HPM_P2
2024/04/13 00:00:17;;;;;;;2.65;2.17;;;;;;;;;;5365384;26;20014;-76
2024/04/13 00:02:43;;;;;;;1.83;1.70;;;;;;;;;;5361395;26;20333;-76
2024/04/13 00:05:09;;;;;;;1.23;0.88;;;;;;;;;;5360625;26;20118;-75
2024/04/13 00:07:35;;;;;;;2.33;1.48;;;;;;;;;;5358799;26;20008;-77
2024/04/13 00:10:03;;;;;;;2.55;1.80;;;;;;;;;;5368777;26;20040;-76
2024/04/13 00:12:28;;;;;;;2.28;2.05;;;;;;;;;;5359636;26;20016;-76
2024/04/13 00:14:54;;;;;;;2.00;1.48;;;;;;;;;;5362404;26;20468;-77
2024/04/13 00:17:20;;;;;;;1.98;1.48;;;;;;;;;;5358612;26;20015;-76
2024/04/13 00:19:46;;;;;;;2.70;2.47;;;;;;;;;;5362516;26;20875;-76
2024/04/13 00:22:11;;;;;;;0.75;0.73;;;;;;;;;;5361487;26;20073;-77
2024/04/13 00:24:37;;;;;;;1.17;1.08;;;;;;;;;;5364511;26;20081;-76
2024/04/13 00:27:03;;;;;;;1.27;1.17;;;;;;;;;;5366229;26;19996;-77
2024/04/13 00:29:31;;;;;;;1.75;1.60;;;;;;;;;;5363568;26;20073;-77
2024/04/13 00:31:59;;;;;;;1.00;0.88;;;;;;;;;;5365052;26;20484;-78
2024/04/13 00:34:25;;;;;;;2.05;1.67;;;;;;;;;;5358440;26;20005;-78
2024/04/13 00:36:50;;;;;;;0.95;0.95;;;;;;;;;;5361729;26;19996;-78
2024/04/13 00:39:17;;;;;;;0.80;0.75;;;;;;;;;;5369603;26;20015;-78
2024/04/13 00:41:42;;;;;;;0.85;0.80;;;;;;;;;;5365050;26;20039;-78
2024/04/13 00:44:08;;;;;;;0.68;0.57;;;;;;;;;;5365089;26;20585;-78
2024/04/13 00:46:34;;;;;;;2.63;2.42;;;;;;;;;;5365319;26;20000;-78
2024/04/13 00:49:10;;;;;;;3.42;2.42;;;;;;;;;;5362930;26;20015;-77
2024/04/13 00:51:38;;;;;;;1.45;1.35;;;;;;;;;;5369915;26;20001;-77
2024/04/13 00:54:04;;;;;;;4.18;1.88;;;;;;;;;;5369001;26;20000;-77
2024/04/13 00:56:30;;;;;;;0.75;0.75;;;;;;;;;;5359355;26;20133;-79
2024/04/13 00:58:56;;;;;;;5.30;2.80;;;;;;;;;;5366281;26;20060;-78
2024/04/13 01:01:24;;;;;;;0.82;0.82;;;;;;;;;;5368368;26;20036;-78
2024/04/13 01:03:51;;;;;;;3.28;1.95;;;;;;;;;;5367898;26;20012;-77
2024/04/13 01:06:17;;;;;;;2.92;2.67;;;;;;;;;;5364249;26;20001;-79
2024/04/13 01:08:42;;;;;;;0.82;0.47;;;;;;;;;;5334946;26;20000;-78
2024/04/13 01:11:08;;;;;;;0.80;0.80;;;;;;;;;;5367108;26;20027;-78
2024/04/13 01:13:34;;;;;;;2.13;1.50;;;;;;;;;;5372655;26;20000;-77
2024/04/13 01:16:00;;;;;;;1.15;1.05;;;;;;;;;;5367164;26;20092;-78
2024/04/13 01:18:26;;;;;;;2.55;1.20;;;;;;;;;;5396551;26;20313;-79
2024/04/13 01:20:53;;;;;;;1.42;1.23;;;;;;;;;;5366004;26;20167;-77
2024/04/13 01:23:18;;;;;;;1.30;1.20;;;;;;;;;;5319700;26;20009;-78
2024/04/13 01:25:44;;;;;;;2.05;0.90;;;;;;;;;;5369950;26;20011;-74
2024/04/13 01:28:11;;;;;;;0.70;0.70;;;;;;;;;;5361903;26;20007;-77
2024/04/13 01:30:37;;;;;;;1.38;1.10;;;;;;;;;;5365404;26;20003;-77
2024/04/13 01:33:03;;;;;;;1.95;1.42;;;;;;;;;;5356318;26;20325;-78
2024/04/13 01:35:30;;;;;;;2.55;2.35;;;;;;;;;;5368500;26;20011;-77
2024/04/13 01:37:55;;;;;;;1.45;1.13;;;;;;;;;;5364068;26;20041;-76
2024/04/13 01:40:22;;;;;;;2.20;2.03;;;;;;;;;;5355073;26;20455;-78
2024/04/13 01:42:48;;;;;;;1.20;1.10;;;;;;;;;;5367293;26;20016;-78
2024/04/13 01:45:13;;;;;;;1.67;1.58;;;;;;;;;;5365402;26;20747;-78
2024/04/13 01:47:40;;;;;;;4.20;1.90;;;;;;;;;;5372604;26;19993;-78
2024/04/13 01:50:06;;;;;;;1.15;1.02;;;;;;;;;;5380915;26;20507;-77
2024/04/13 01:52:32;;;;;;;0.65;0.57;;;;;;;;;;5364565;26;20005;-78
2024/04/13 01:54:58;;;;;;;0.25;0.25;;;;;;;;;;5334355;26;20001;-78
2024/04/13 01:57:24;;;;;;;0.95;0.52;;;;;;;;;;5364326;26;20000;-78
2024/04/13 01:59:50;;;;;;;1.75;1.38;;;;;;;;;;5369840;26;20078;-79
2024/04/13 02:02:15;;;;;;;1.52;1.17;;;;;;;;;;5371907;26;20004;-79
2024/04/13 02:04:41;;;;;;;1.15;1.02;;;;;;;;;;5338310;26;20432;-79
2024/04/13 02:07:07;;;;;;;0.93;0.77;;;;;;;;;;5383400;26;20021;-78
2024/04/13 02:09:33;;;;;;;6.72;5.10;;;;;;;;;;5362512;26;20062;-78
2024/04/13 02:11:59;;;;;;;0.90;0.68;;;;;;;;;;5334926;26;20000;-79
2024/04/13 02:14:24;;;;;;;1.67;1.02;;;;;;;;;;5367435;26;20028;-80
2024/04/13 02:16:50;;;;;;;2.67;1.55;;;;;;;;;;5370515;26;20008;-79
2024/04/13 02:19:16;;;;;;;0.90;0.75;;;;;;;;;;5369995;26;20006;-79
2024/04/13 02:21:42;;;;;;;1.23;1.13;;;;;;;;;;5358081;26;20013;-77
2024/04/13 02:24:07;;;;;;;1.30;0.95;;;;;;;;;;5378026;26;20016;-76
2024/04/13 02:26:33;;;;;;;2.60;2.40;;;;;;;;;;5367986;26;20428;-77
2024/04/13 02:28:59;;;;;;;1.80;1.15;;;;;;;;;;5401869;26;20011;-76
2024/04/13 02:31:25;;;;;;;0.32;0.32;;;;;;;;;;5405617;26;20004;-77
2024/04/13 02:33:51;;;;;;;1.17;1.08;;;;;;;;;;5392605;26;20000;-78
2024/04/13 02:36:16;;;;;;;1.17;1.08;;;;;;;;;;5396453;26;20004;-77
2024/04/13 02:38:42;;;;;;;3.85;1.80;;;;;;;;;;5407080;26;20010;-76
2024/04/13 02:41:08;;;;;;;2.25;1.27;;;;;;;;;;5400475;26;20890;-76
2024/04/13 02:43:35;;;;;;;1.17;1.08;;;;;;;;;;5399127;26;20069;-77
2024/04/13 02:46:07;;;;;;;1.05;0.82;;;;;;;;;;5407973;26;20040;-78
2024/04/13 02:48:32;;;;;;;13.05;1.48;;;;;;;;;;5405440;26;20011;-78
2024/04/13 02:50:59;;;;;;;0.55;0.55;;;;;;;;;;5396648;26;19998;-80
2024/04/13 02:53:24;;;;;;;1.63;1.33;;;;;;;;;;5397882;26;20503;-77
2024/04/13 02:55:50;;;;;;;0.77;0.77;;;;;;;;;;5408273;26;20011;-78
2024/04/13 02:58:16;;;;;;;2.25;1.48;;;;;;;;;;5405658;26;19999;-81
2024/04/13 03:00:50;;;;;;;2.05;1.15;;;;;;;;;;5401552;26;19996;-79
2024/04/13 03:03:16;;;;;;;2.80;2.60;;;;;;;;;;5394879;26;20045;-78
2024/04/13 03:05:42;;;;;;;0.90;0.60;;;;;;;;;;5372963;26;20044;-79
2024/04/13 03:08:09;;;;;;;3.55;3.35;;;;;;;;;;5399814;26;19992;-77
2024/04/13 03:10:35;;;;;;;3.15;1.20;;;;;;;;;;5403867;26;20071;-78
2024/04/13 03:13:00;;;;;;;5.97;2.28;;;;;;;;;;5406964;26;20800;-78
2024/04/13 03:15:26;;;;;;;1.90;1.45;;;;;;;;;;5364608;26;20011;-78
2024/04/13 03:17:52;;;;;;;1.50;1.30;;;;;;;;;;5399279;26;20461;-77
2024/04/13 03:20:17;;;;;;;2.78;2.55;;;;;;;;;;5406831;26;20006;-78
2024/04/13 03:22:43;;;;;;;0.75;0.75;;;;;;;;;;5393652;26;20004;-78
2024/04/13 03:25:09;;;;;;;0.65;0.65;;;;;;;;;;5406621;26;20002;-78
2024/04/13 03:27:35;;;;;;;3.40;1.15;;;;;;;;;;5402758;26;19996;-78
2024/04/13 03:30:01;;;;;;;1.77;0.68;;;;;;;;;;5403782;26;20011;-77
2024/04/13 03:32:28;;;;;;;1.45;1.25;;;;;;;;;;5387769;26;20008;-78
2024/04/13 03:34:54;;;;;;;8.07;0.80;;;;;;;;;;5396145;26;20072;-79
2024/04/13 03:37:20;;;;;;;1.27;1.17;;;;;;;;;;5373967;26;19999;-78
2024/04/13 03:39:45;;;;;;;3.13;2.83;;;;;;;;;;5396343;26;19992;-77
2024/04/13 03:42:11;;;;;;;0.90;0.90;;;;;;;;;;5401397;26;20012;-80
2024/04/13 03:44:37;;;;;;;1.10;1.00;;;;;;;;;;5401790;26;20000;-79
2024/04/13 03:47:02;;;;;;;1.15;1.02;;;;;;;;;;5401830;26;20000;-79
2024/04/13 03:49:29;;;;;;;3.65;1.75;;;;;;;;;;5378712;26;20077;-76
2024/04/13 03:51:56;;;;;;;1.17;0.95;;;;;;;;;;5397130;26;20010;-75
2024/04/13 03:54:22;;;;;;;4.70;3.13;;;;;;;;;;5404975;26;20466;-77
2024/04/13 03:56:48;;;;;;;1.10;0.95;;;;;;;;;;5401518;26;20036;-79
2024/04/13 03:59:14;;;;;;;1.67;0.82;;;;;;;;;;5385327;26;20034;-78
2024/04/13 04:01:39;;;;;;;5.13;3.33;;;;;;;;;;5393784;26;19999;-78
2024/04/13 04:04:05;;;;;;;1.65;0.98;;;;;;;;;;5371367;26;20540;-75
2024/04/13 04:06:31;;;;;;;0.85;0.82;;;;;;;;;;5392363;26;20011;-79
2024/04/13 04:08:56;;;;;;;3.00;0.57;;;;;;;;;;5398195;26;20006;-79
2024/04/13 04:11:22;;;;;;;3.80;1.27;;;;;;;;;;5405506;26;20032;-78
2024/04/13 04:13:48;;;;;;;2.92;1.35;;;;;;;;;;5398893;26;20016;-77
2024/04/13 04:16:13;;;;;;;1.02;0.95;;;;;;;;;;5393758;26;20007;-76
2024/04/13 04:18:43;;;;;;;0.90;0.88;;;;;;;;;;5400628;26;20011;-77
2024/04/13 04:21:09;;;;;;;1.95;1.75;;;;;;;;;;5403931;26;20007;-78
2024/04/13 04:23:35;;;;;;;1.98;1.85;;;;;;;;;;5400121;26;20343;-77
2024/04/13 04:26:01;;;;;;;2.47;1.13;;;;;;;;;;5400645;26;19991;-77
2024/04/13 04:28:27;;;;;;;4.10;2.28;;;;;;;;;;5383538;26;20085;-80
2024/04/13 04:30:53;;;;;;;1.08;0.85;;;;;;;;;;5367701;26;20003;-80
2024/04/13 04:33:19;;;;;;;2.95;2.75;;;;;;;;;;5397986;26;20006;-78
2024/04/13 04:35:45;;;;;;;0.95;0.90;;;;;;;;;;5397938;26;20065;-78
2024/04/13 04:38:12;;;;;;;2.00;1.40;;;;;;;;;;5406173;26;19996;-80
2024/04/13 04:40:38;;;;;;;2.47;1.73;;;;;;;;;;5399352;26;19996;-78
2024/04/13 04:43:04;;;;;;;1.42;1.33;;;;;;;;;;5401837;26;20458;-78
2024/04/13 04:45:31;;;;;;;1.08;0.98;;;;;;;;;;5398480;26;19995;-79
2024/04/13 04:47:57;;;;;;;1.80;1.70;;;;;;;;;;5393216;26;20459;-77
2024/04/13 04:50:23;;;;;;;3.15;2.05;;;;;;;;;;5405082;26;20061;-77
2024/04/13 04:52:48;;;;;;;2.72;2.10;;;;;;;;;;5401470;26;20419;-77
2024/04/13 04:55:15;;;;;;;2.00;1.80;;;;;;;;;;5399769;26;20004;-77
2024/04/13 04:57:41;;;;;;;2.92;1.55;;;;;;;;;;5397734;26;20000;-78
2024/04/13 05:00:13;;;;;;;1.65;1.45;;;;;;;;;;5404834;26;22334;-79
2024/04/13 05:02:39;;;;;;;3.10;1.58;;;;;;;;;;5398061;26;20049;-77
2024/04/13 05:05:08;;;;;;;2.15;1.63;;;;;;;;;;5397520;26;20070;-78
2024/04/13 05:07:34;;;;;;;2.63;2.05;;;;;;;;;;5391860;26;20000;-78
2024/04/13 05:10:00;;;;;;;4.55;3.38;;;;;;;;;;5399208;26;20024;-77
2024/04/13 05:12:25;;;;;;;2.45;2.25;;;;;;;;;;5397517;26;20376;-78
2024/04/13 05:14:51;;;;;;;2.03;1.83;;;;;;;;;;5399039;26;20007;-77
2024/04/13 05:17:17;;;;;;;1.60;1.50;;;;;;;;;;5391700;26;20828;-78
2024/04/13 05:19:43;;;;;;;6.05;3.65;;;;;;;;;;5407328;26;19987;-78
2024/04/13 05:22:09;;;;;;;1.30;1.10;;;;;;;;;;5401763;26;20427;-77
2024/04/13 05:24:35;;;;;;;3.75;2.25;;;;;;;;;;5402394;26;20003;-77
2024/04/13 05:27:06;;;;;;;3.05;2.85;;;;;;;;;;5393510;26;20006;-78
2024/04/13 05:29:32;;;;;;;1.98;1.83;;;;;;;;;;5403105;26;20004;-79
2024/04/13 05:31:57;;;;;;;2.20;2.00;;;;;;;;;;5397609;26;20003;-77
2024/04/13 05:34:25;;;;;;;5.25;1.13;;;;;;;;;;5391052;26;20000;-80
2024/04/13 05:36:50;;;;;;;1.42;1.33;;;;;;;;;;5368986;26;19999;-77
2024/04/13 05:39:16;;;;;;;2.67;2.35;;;;;;;;;;5393832;26;20334;-78
2024/04/13 05:41:42;;;;;;;1.27;1.02;;;;;;;;;;5365467;26;19995;-77
2024/04/13 05:44:07;;;;;;;1.00;0.80;;;;;;;;;;5404199;26;19987;-77
2024/04/13 05:46:33;;;;;;;0.40;0.40;;;;;;;;;;5404790;26;20458;-77
2024/04/13 05:48:59;;;;;;;3.72;1.92;;;;;;;;;;5401621;26;20007;-76
2024/04/13 05:51:24;;;;;;;1.83;1.67;;;;;;;;;;5397419;26;20000;-77
2024/04/13 05:53:50;;;;;;;2.42;1.88;;;;;;;;;;5432035;26;20011;-76
2024/04/13 05:56:16;;;;;;;0.55;0.50;;;;;;;;;;5401484;26;20036;-76
2024/04/13 05:58:41;;;;;;;0.98;0.88;;;;;;;;;;5403040;26;20002;-78
2024/04/13 06:01:07;;;;;;;1.65;1.55;;;;;;;;;;5396758;26;20087;-78
2024/04/13 06:03:34;;;;;;;2.28;1.90;;;;;;;;;;5371059;26;20015;-77
2024/04/13 06:06:00;;;;;;;1.20;1.10;;;;;;;;;;5393084;26;20015;-78
2024/04/13 06:08:25;;;;;;;4.85;1.92;;;;;;;;;;5400106;26;20110;-79
2024/04/13 06:10:52;;;;;;;0.20;0.20;;;;;;;;;;5404530;26;20003;-78
2024/04/13 06:13:17;;;;;;;0.45;0.45;;;;;;;;;;5415262;26;20013;-77
2024/04/13 06:15:44;;;;;;;1.75;1.60;;;;;;;;;;5412461;26;20534;-79
2024/04/13 06:18:10;;;;;;;2.00;1.75;;;;;;;;;;5405934;26;20008;-77
2024/04/13 06:20:36;;;;;;;2.10;1.90;;;;;;;;;;5403073;26;20015;-79
2024/04/13 06:23:02;;;;;;;0.85;0.80;;;;;;;;;;5388910;26;20435;-77
2024/04/13 06:25:28;;;;;;;3.63;1.88;;;;;;;;;;5389089;26;20015;-76
2024/04/13 06:27:54;;;;;;;1.05;0.82;;;;;;;;;;5394674;26;20569;-80
2024/04/13 06:30:19;;;;;;;1.27;0.95;;;;;;;;;;5391790;26;20019;-76
2024/04/13 06:32:45;;;;;;;1.70;0.93;;;;;;;;;;5374460;26;19995;-79
2024/04/13 06:35:11;;;;;;;0.75;0.75;;;;;;;;;;5399697;26;20455;-79
2024/04/13 06:37:37;;;;;;;1.15;1.05;;;;;;;;;;5401551;26;20027;-79
2024/04/13 06:40:06;;;;;;;1.63;0.93;;;;;;;;;;5376677;26;20117;-78
2024/04/13 06:42:33;;;;;;;3.10;1.85;;;;;;;;;;5369234;26;20004;-76
2024/04/13 06:45:00;;;;;;;0.98;0.82;;;;;;;;;;5363199;26;20321;-77
2024/04/13 06:47:26;;;;;;;2.75;1.05;;;;;;;;;;5403034;26;20000;-78
2024/04/13 06:49:52;;;;;;;0.93;0.85;;;;;;;;;;5388948;26;20011;-80
2024/04/13 06:52:18;;;;;;;0.65;0.52;;;;;;;;;;5388371;26;20785;-80
2024/04/13 06:54:44;;;;;;;1.05;0.90;;;;;;;;;;5400512;26;20011;-82
2024/04/13 06:57:10;;;;;;;0.60;0.60;;;;;;;;;;5365664;26;20011;-82
2024/04/13 06:59:35;;;;;;;1.27;1.20;;;;;;;;;;5403869;26;19992;-79
2024/04/13 07:02:01;;;;;;;1.25;0.95;;;;;;;;;;5390661;26;20163;-81
2024/04/13 07:04:27;;;;;;;3.72;0.75;;;;;;;;;;5403084;26;20004;-79
2024/04/13 07:06:52;;;;;;;0.50;0.40;;;;;;;;;;5398004;26;19996;-78
2024/04/13 07:09:20;;;;;;;0.43;0.40;;;;;;;;;;5374487;26;20007;-80
2024/04/13 07:11:46;;;;;;;1.15;0.73;;;;;;;;;;5375344;26;20010;-80
2024/04/13 07:14:12;;;;;;;1.10;1.00;;;;;;;;;;5396442;26;19995;-81
2024/04/13 07:16:37;;;;;;;0.38;0.38;;;;;;;;;;5395059;26;19999;-72
2024/04/13 07:19:03;;;;;;;1.70;1.60;;;;;;;;;;5388706;26;20336;-74
2024/04/13 07:21:29;;;;;;;13.23;2.70;;;;;;;;;;5399023;26;20010;-70
2024/04/13 07:23:54;;;;;;;0.40;0.40;;;;;;;;;;5397461;26;20699;-71
2024/04/13 07:26:20;;;;;;;2.28;1.15;;;;;;;;;;5365411;26;19999;-71
2024/04/13 07:28:46;;;;;;;2.30;1.90;;;;;;;;;;5404776;26;20096;-70
2024/04/13 07:31:11;;;;;;;1.27;1.17;;;;;;;;;;5391573;26;20011;-72
2024/04/13 07:33:37;;;;;;;1.00;0.85;;;;;;;;;;5389508;26;20331;-72
2024/04/13 07:36:03;;;;;;;1.05;0.77;;;;;;;;;;5360495;26;20023;-71
2024/04/13 07:38:29;;;;;;;0.52;0.40;;;;;;;;;;5397132;26;20000;-69
2024/04/13 07:40:55;;;;;;;1.27;0.90;;;;;;;;;;5394185;26;20002;-71
2024/04/13 07:43:20;;;;;;;1.45;1.35;;;;;;;;;;5389486;26;20006;-71
2024/04/13 07:45:49;;;;;;;2.72;1.65;;;;;;;;;;5388522;26;20015;-68
2024/04/13 07:48:15;;;;;;;0.20;0.20;;;;;;;;;;5387760;26;20004;-69
2024/04/13 07:50:41;;;;;;;0.93;0.82;;;;;;;;;;5398771;26;20986;-70
2024/04/13 07:53:06;;;;;;;0.30;0.30;;;;;;;;;;5390352;26;20000;-70
2024/04/13 07:55:32;;;;;;;0.55;0.55;;;;;;;;;;5416407;26;20075;-72
2024/04/13 07:57:58;;;;;;;2.50;1.85;;;;;;;;;;5390164;26;20316;-73
2024/04/13 08:00:23;;;;;;;0.40;0.30;;;;;;;;;;5394203;26;20014;-71
2024/04/13 08:02:49;;;;;;;0.93;0.73;;;;;;;;;;5390192;26;20434;-69
2024/04/13 08:05:15;;;;;;;0.45;0.30;;;;;;;;;;5362642;26;20004;-71
2024/04/13 08:07:41;;;;;;;5.30;3.75;;;;;;;;;;5389425;26;20015;-71
2024/04/13 08:10:07;;;;;;;2.45;1.27;;;;;;;;;;5378338;26;20018;-72
2024/04/13 08:12:32;;;;;;;0.52;0.40;;;;;;;;;;5391500;26;19996;-74
2024/04/13 08:14:58;;;;;;;1.08;0.85;;;;;;;;;;5388862;26;20000;-74
2024/04/13 08:17:26;;;;;;;2.30;2.15;;;;;;;;;;5360636;26;20019;-71
2024/04/13 08:19:53;;;;;;;1.20;1.10;;;;;;;;;;5382245;26;19996;-74
2024/04/13 08:22:18;;;;;;;2.65;2.00;;;;;;;;;;5381141;26;20003;-71
2024/04/13 08:24:44;;;;;;;0.73;0.73;;;;;;;;;;5380777;26;20000;-71
2024/04/13 08:27:10;;;;;;;1.05;0.95;;;;;;;;;;5386677;26;20043;-74
2024/04/13 08:29:36;;;;;;;1.27;0.52;;;;;;;;;;5379647;26;20031;-74
2024/04/13 08:32:01;;;;;;;1.00;0.57;;;;;;;;;;5364958;26;19999;-72
2024/04/13 08:34:27;;;;;;;0.47;0.47;;;;;;;;;;5350794;26;20244;-68
2024/04/13 08:36:53;;;;;;;0.68;0.45;;;;;;;;;;5384091;26;19999;-72
2024/04/13 08:39:19;;;;;;;1.73;1.58;;;;;;;;;;5360147;26;20082;-76
2024/04/13 08:42:07;;;;;;;2.10;1.63;;;;;;;;;;5387451;26;20012;-75
2024/04/13 08:44:32;;;;;;;1.48;1.33;;;;;;;;;;5380238;26;20053;-75
2024/04/13 08:47:01;;;;;;;0.95;0.65;;;;;;;;;;5392796;26;20007;-75
2024/04/13 08:49:27;;;;;;;0.40;0.32;;;;;;;;;;5385574;26;20473;-75
2024/04/13 08:51:53;;;;;;;3.95;1.60;;;;;;;;;;5396767;26;20009;-74
2024/04/13 08:54:19;;;;;;;0.28;0.28;;;;;;;;;;5389886;26;19999;-76
2024/04/13 08:56:47;;;;;;;1.63;1.48;;;;;;;;;;5394783;26;20000;-75
2024/04/13 08:59:13;;;;;;;2.53;0.68;;;;;;;;;;5392329;26;20024;-77
2024/04/13 09:01:44;;;;;;;0.47;0.43;;;;;;;;;;5382591;26;20823;-75
2024/04/13 09:04:11;;;;;;;3.53;1.10;;;;;;;;;;5386871;26;20009;-75
2024/04/13 09:06:36;;;;;;;0.52;0.52;;;;;;;;;;5381187;26;20000;-73
2024/04/13 09:09:08;;;;;;;0.63;0.63;;;;;;;;;;5388237;26;20368;-76
2024/04/13 09:11:35;;;;;;;0.65;0.65;;;;;;;;;;5382270;26;20463;-77
2024/04/13 09:14:02;;;;;;;0.22;0.22;;;;;;;;;;5401291;26;20441;-73
2024/04/13 09:16:28;;;;;;;0.90;0.80;;;;;;;;;;5394554;26;20071;-79
2024/04/13 09:18:56;;;;;;;0.52;0.47;;;;;;;;;;5376636;26;20004;-75
2024/04/13 09:21:22;;;;;;;1.75;0.95;;;;;;;;;;5390259;26;20014;-74
2024/04/13 09:23:49;;;;;;;0.77;0.60;;;;;;;;;;5393107;26;19996;-75
2024/04/13 09:26:14;;;;;;;1.17;0.82;;;;;;;;;;5391653;26;20013;-75
2024/04/13 09:28:41;;;;;;;2.88;0.80;;;;;;;;;;5397420;26;20000;-74
2024/04/13 09:31:08;;;;;;;0.57;0.52;;;;;;;;;;5364630;26;19999;-75
2024/04/13 09:33:34;;;;;;;0.82;0.70;;;;;;;;;;5388278;26;20196;-73
2024/04/13 09:36:00;;;;;;;1.10;1.00;;;;;;;;;;5382015;26;20000;-73
2024/04/13 09:38:26;;;;;;;1.60;1.08;;;;;;;;;;5382328;26;20463;-75
2024/04/13 09:41:01;;;;;;;0.57;0.32;;;;;;;;;;5364753;26;20000;-75
2024/04/13 09:43:28;;;;;;;1.98;1.80;;;;;;;;;;5394671;26;20021;-74
2024/04/13 09:46:02;;;;;;;0.20;0.20;;;;;;;;;;5386646;26;20008;-73
2024/04/13 09:48:28;;;;;;;0.73;0.60;;;;;;;;;;5357682;26;20353;-74
2024/04/13 09:50:55;;;;;;;0.98;0.88;;;;;;;;;;5386602;26;20055;-76
2024/04/13 09:53:20;;;;;;;2.42;1.75;;;;;;;;;;5388569;26;20102;-72
2024/04/13 09:55:46;;;;;;;0.30;0.30;;;;;;;;;;5364822;26;20323;-73
2024/04/13 09:58:13;;;;;;;1.95;0.40;;;;;;;;;;5386381;26;20011;-74
2024/04/13 10:00:43;;;;;;;1.05;0.95;;;;;;;;;;5386835;26;20000;-73
2024/04/13 10:03:10;;;;;;;14.23;1.40;;;;;;;;;;5391441;26;19999;-73
2024/04/13 10:05:37;;;;;;;7.80;2.20;;;;;;;;;;5387303;26;20513;-74
2024/04/13 10:08:05;;;;;;;0.77;0.77;;;;;;;;;;5391172;26;20467;-74
2024/04/13 10:10:32;;;;;;;0.40;0.40;;;;;;;;;;5405288;26;20018;-77
2024/04/13 10:12:58;;;;;;;2.92;1.35;;;;;;;;;;5400044;26;20003;-74
2024/04/13 10:15:24;;;;;;;2.63;0.63;;;;;;;;;;5375019;26;20000;-74
2024/04/13 10:17:50;;;;;;;1.92;1.75;;;;;;;;;;5386860;26;19987;-74
2024/04/13 10:20:15;;;;;;;0.85;0.82;;;;;;;;;;5394374;26;20011;-73
2024/04/13 10:22:51;;;;;;;0.90;0.55;;;;;;;;;;5380219;26;20014;-75
2024/04/13 10:25:17;;;;;;;0.85;0.85;;;;;;;;;;5395597;26;19991;-74
2024/04/13 10:27:43;;;;;;;1.33;1.23;;;;;;;;;;5398581;26;20017;-74
2024/04/13 10:30:08;;;;;;;1.85;1.25;;;;;;;;;;5383200;26;20599;-74
2024/04/13 10:32:34;;;;;;;0.25;0.25;;;;;;;;;;5390412;26;20011;-75
2024/04/13 10:35:07;;;;;;;1.30;0.90;;;;;;;;;;5358394;26;19997;-74
2024/04/13 10:37:33;;;;;;;0.77;0.77;;;;;;;;;;5392699;26;20019;-74
2024/04/13 10:40:00;;;;;;;1.80;1.50;;;;;;;;;;5384941;26;20000;-73
2024/04/13 10:42:44;;;;;;;0.43;0.43;;;;;;;;;;5374957;26;19996;-73
2024/04/13 10:45:19;;;;;;;2.00;1.80;;;;;;;;;;5389789;26;20011;-75
2024/04/13 10:47:46;;;;;;;3.58;2.63;;;;;;;;;;5390090;26;20598;-82
2024/04/13 10:50:15;;;;;;;1.75;1.50;;;;;;;;;;5376543;26;19995;-74
2024/04/13 10:52:42;;;;;;;1.10;1.00;;;;;;;;;;5383092;26;20000;-77
2024/04/13 10:55:11;;;;;;;1.90;1.75;;;;;;;;;;5392424;26;19999;-75
2024/04/13 10:57:39;;;;;;;0.43;0.28;;;;;;;;;;5393546;26;20138;-75
2024/04/13 11:00:05;;;;;;;0.45;0.40;;;;;;;;;;5353805;26;20004;-75
2024/04/13 11:02:31;;;;;;;1.20;1.10;;;;;;;;;;5396363;26;20080;-78
2024/04/13 11:04:58;;;;;;;1.33;0.88;;;;;;;;;;5391330;26;20066;-75
2024/04/13 11:07:23;;;;;;;0.45;0.43;;;;;;;;;;5345092;26;20016;-75
2024/04/13 11:09:49;;;;;;;1.42;1.33;;;;;;;;;;5389156;26;20553;-74
2024/04/13 11:12:16;;;;;;;1.15;1.05;;;;;;;;;;5360454;26;19999;-73
2024/04/13 11:14:42;;;;;;;0.45;0.45;;;;;;;;;;5388125;26;20000;-74
2024/04/13 11:17:09;;;;;;;0.85;0.85;;;;;;;;;;5386192;26;20031;-74
2024/04/13 11:19:34;;;;;;;1.25;1.15;;;;;;;;;;5385940;26;20679;-78
2024/04/13 11:22:01;;;;;;;0.30;0.30;;;;;;;;;;5379153;26;20003;-74
2024/04/13 11:24:27;;;;;;;0.85;0.63;;;;;;;;;;5384965;26;19996;-73
2024/04/13 11:26:53;;;;;;;1.00;0.77;;;;;;;;;;5386816;26;20003;-74
2024/04/13 11:29:19;;;;;;;1.98;1.58;;;;;;;;;;5377239;26;20089;-76
2024/04/13 11:31:45;;;;;;;1.02;0.82;;;;;;;;;;5382373;26;20406;-73
2024/04/13 11:34:11;;;;;;;0.30;0.30;;;;;;;;;;5384232;26;20000;-75
2024/04/13 11:36:37;;;;;;;0.45;0.45;;;;;;;;;;5351367;26;20013;-75
2024/04/13 11:39:03;;;;;;;1.17;1.08;;;;;;;;;;5372563;26;20000;-76
2024/04/13 11:41:31;;;;;;;0.30;0.30;;;;;;;;;;5399755;26;20027;-75
2024/04/13 11:43:57;;;;;;;0.60;0.60;;;;;;;;;;5368999;26;19999;-76
2024/04/13 11:46:23;;;;;;;1.08;0.68;;;;;;;;;;5379781;26;19999;-75
2024/04/13 11:48:52;;;;;;;0.40;0.40;;;;;;;;;;5366153;26;20007;-74
2024/04/13 11:51:19;;;;;;;0.65;0.57;;;;;;;;;;5384834;26;20447;-73
2024/04/13 11:53:45;;;;;;;7.32;4.03;;;;;;;;;;5393087;26;20015;-74
2024/04/13 11:56:11;;;;;;;0.50;0.50;;;;;;;;;;5397279;26;20059;-74
2024/04/13 11:58:45;;;;;;;1.10;0.85;;;;;;;;;;5405254;26;20870;-77
2024/04/13 12:01:10;;;;;;;0.25;0.22;;;;;;;;;;5393170;26;20003;-75
2024/04/13 12:03:36;;;;;;;1.20;0.50;;;;;;;;;;5386308;26;20571;-73
2024/04/13 12:06:02;;;;;;;0.70;0.70;;;;;;;;;;5359364;26;20000;-74
2024/04/13 12:08:27;;;;;;;0.93;0.90;;;;;;;;;;5388191;26;20393;-76
2024/04/13 12:10:55;;;;;;;0.95;0.85;;;;;;;;;;5378042;26;20297;-74
2024/04/13 12:13:21;;;;;;;1.13;0.75;;;;;;;;;;5381841;26;19996;-73
2024/04/13 12:15:47;;;;;;;0.68;0.68;;;;;;;;;;5378275;26;20010;-74
2024/04/13 12:18:13;;;;;;;2.08;0.95;;;;;;;;;;5358364;26;19996;-74
2024/04/13 12:20:38;;;;;;;1.65;1.20;;;;;;;;;;5395155;26;20458;-74
2024/04/13 12:23:04;;;;;;;0.45;0.35;;;;;;;;;;5389846;26;20531;-75
2024/04/13 12:25:30;;;;;;;3.83;3.10;;;;;;;;;;5396117;26;20015;-77
2024/04/13 12:27:57;;;;;;;1.25;0.90;;;;;;;;;;5390699;26;20000;-79
2024/04/13 12:30:22;;;;;;;1.30;1.20;;;;;;;;;;5366367;26;20047;-76
2024/04/13 12:32:48;;;;;;;0.75;0.75;;;;;;;;;;5394227;26;20076;-76
2024/04/13 12:35:17;;;;;;;3.08;1.42;;;;;;;;;;5390390;26;20010;-78
2024/04/13 12:37:43;;;;;;;1.30;1.05;;;;;;;;;;5392442;26;20019;-74
2024/04/13 12:40:09;;;;;;;0.75;0.75;;;;;;;;;;5356864;26;20497;-74
2024/04/13 12:42:35;;;;;;;3.85;1.42;;;;;;;;;;5360025;26;20081;-74
2024/04/13 12:45:00;;;;;;;0.73;0.70;;;;;;;;;;5392616;26;20069;-74
2024/04/13 12:47:26;;;;;;;0.63;0.55;;;;;;;;;;5391152;26;20008;-73
2024/04/13 12:49:52;;;;;;;0.50;0.50;;;;;;;;;;5397523;26;20043;-73
2024/04/13 12:52:18;;;;;;;2.67;2.30;;;;;;;;;;5382340;26;19999;-74
2024/04/13 12:54:44;;;;;;;0.70;0.68;;;;;;;;;;5396623;26;20078;-75
2024/04/13 12:57:10;;;;;;;0.63;0.63;;;;;;;;;;5401138;26;20004;-78
2024/04/13 12:59:36;;;;;;;2.90;2.42;;;;;;;;;;5384823;26;20077;-74
2024/04/13 13:02:01;;;;;;;0.55;0.55;;;;;;;;;;5386699;26;20014;-74
2024/04/13 13:04:27;;;;;;;13.20;2.92;;;;;;;;;;5359516;26;20014;-73
2024/04/13 13:06:53;;;;;;;1.40;1.30;;;;;;;;;;5388404;26;20006;-74
2024/04/13 13:09:18;;;;;;;1.02;0.95;;;;;;;;;;5385173;26;20475;-74
2024/04/13 13:11:44;;;;;;;0.65;0.65;;;;;;;;;;5394108;26;20002;-76
2024/04/13 13:14:10;;;;;;;4.07;1.52;;;;;;;;;;5392715;26;20018;-73
2024/04/13 13:16:36;;;;;;;0.55;0.55;;;;;;;;;;5392348;26;20117;-74
2024/04/13 13:19:01;;;;;;;100.40;25.15;;;;;;;;;;5404862;26;20446;-75
2024/04/13 13:21:28;;;;;;;3.00;2.00;;;;;;;;;;5389599;26;19999;-76
2024/04/13 13:23:54;;;;;;;0.60;0.60;;;;;;;;;;5383446;26;20152;-74
2024/04/13 13:26:20;;;;;;;0.50;0.50;;;;;;;;;;5396103;26;20042;-75
2024/04/13 13:28:45;;;;;;;1.13;1.02;;;;;;;;;;5403293;26;20003;-75
2024/04/13 13:31:11;;;;;;;1.85;1.10;;;;;;;;;;5390997;26;20392;-73
2024/04/13 13:33:37;;;;;;;0.90;0.75;;;;;;;;;;5391134;26;20409;-73
2024/04/13 13:36:02;;;;;;;0.70;0.63;;;;;;;;;;5392770;26;20019;-74
2024/04/13 13:38:28;;;;;;;3.63;2.42;;;;;;;;;;5361899;26;20041;-72
2024/04/13 13:40:54;;;;;;;0.40;0.40;;;;;;;;;;5385292;26;19999;-76
2024/04/13 13:43:19;;;;;;;1.95;1.50;;;;;;;;;;5397025;26;20023;-74
2024/04/13 13:45:45;;;;;;;2.63;1.02;;;;;;;;;;5392755;26;20014;-74
2024/04/13 13:48:11;;;;;;;1.50;1.25;;;;;;;;;;5391949;26;20015;-76
2024/04/13 13:50:36;;;;;;;0.30;0.30;;;;;;;;;;5401529;26;20293;-76
2024/04/13 13:53:02;;;;;;;1.50;1.38;;;;;;;;;;5390184;26;20010;-77
2024/04/13 13:55:28;;;;;;;1.27;0.50;;;;;;;;;;5400623;26;20028;-73
2024/04/13 13:57:53;;;;;;;0.90;0.80;;;;;;;;;;5398059;26;20426;-74
2024/04/13 14:00:20;;;;;;;2.08;1.90;;;;;;;;;;5390837;26;20014;-73
2024/04/13 14:02:46;;;;;;;1.52;1.42;;;;;;;;;;5391790;26;20578;-74
2024/04/13 14:05:11;;;;;;;0.65;0.57;;;;;;;;;;5400424;26;20014;-75
2024/04/13 14:07:37;;;;;;;0.80;0.60;;;;;;;;;;5401669;26;20084;-76
2024/04/13 14:10:03;;;;;;;0.73;0.60;;;;;;;;;;5399732;26;19996;-75
2024/04/13 14:12:29;;;;;;;0.88;0.88;;;;;;;;;;5382191;26;20004;-76
2024/04/13 14:14:55;;;;;;;1.45;1.33;;;;;;;;;;5370195;26;20487;-74
2024/04/13 14:17:20;;;;;;;1.55;1.20;;;;;;;;;;5398043;26;20342;-73
2024/04/13 14:19:46;;;;;;;0.60;0.60;;;;;;;;;;5390534;26;20316;-77
2024/04/13 14:22:12;;;;;;;4.05;2.28;;;;;;;;;;5396403;26;20004;-77
2024/04/13 14:24:39;;;;;;;1.60;0.98;;;;;;;;;;5352270;26;20305;-76
2024/04/13 14:27:05;;;;;;;0.77;0.50;;;;;;;;;;5328773;26;20010;-76
2024/04/13 14:29:30;;;;;;;1.65;1.45;;;;;;;;;;5323888;26;20882;-74
2024/04/13 14:31:56;;;;;;;0.80;0.80;;;;;;;;;;5332905;26;20107;-76
2024/04/13 14:34:22;;;;;;;1.38;1.17;;;;;;;;;;5335370;26;20004;-75
2024/04/13 14:36:47;;;;;;;1.45;1.08;;;;;;;;;;5324646;26;20015;-75